This is the latest recevied weather packets stored in our database for station/object N2KI-13. If no packets are shown the sender has not sent any weather packets the latest 10 day(s).
| Time | Temp. | Humidity | Pressure | Rain* | Wind** | Luminosity | Snow |
|---|---|---|---|---|---|---|---|
| 1777316704 | 21.67° C | 40% | 1022.1 hPa | 0 mm | - | - | - |
| 1777316103 | 21.67° C | 40% | 1022.2 hPa | 0 mm | - | - | - |
| 1777315204 | 21.11° C | 40% | 1022.4 hPa | 0 mm | - | - | - |
| 1777314004 | 20.56° C | 41% | 1022.7 hPa | 0 mm | - | - | - |
| 1777310704 | 20° C | 47% | 1023.3 hPa | 0 mm | - | - | - |
| 1777309804 | 18.89° C | 47% | 1023.5 hPa | 0 mm | - | - | - |
| 1777308005 | 18.89° C | 49% | 1023.8 hPa | 0 mm | - | - | - |
| 1777307104 | 18.89° C | 47% | 1023.8 hPa | 0 mm | - | - | - |
| 1777305305 | 17.78° C | 51% | 1024 hPa | 0 mm | - | - | - |
| 1777305004 | 17.78° C | 51% | 1024 hPa | 0 mm | - | - | - |
| 1777304105 | 17.22° C | 49% | 1024.2 hPa | 0 mm | - | - | - |
| 1777302904 | 16.67° C | 53% | 1024.5 hPa | 0 mm | - | - | - |
| 1777302004 | 16.67° C | 52% | 1024.4 hPa | 0 mm | - | - | - |
| 1777300504 | 16.11° C | 59% | 1024.5 hPa | 0 mm | - | - | - |
| 1777299604 | 15.56° C | 60% | 1024.5 hPa | 0 mm | - | - | - |
| 1777299304 | 15° C | 61% | 1024.5 hPa | 0 mm | - | - | - |
| 1777294804 | 11.11° C | 79% | 1024.1 hPa | 0 mm | - | - | - |
| 1777291504 | 7.22° C | 91% | 1023.9 hPa | 0 mm | - | - | - |
| 1777290904 | 6.67° C | 92% | 1023.8 hPa | 0 mm | - | - | - |
| 1777289704 | 5° C | 91% | 1023.7 hPa | 0 mm | - | - | - |
| 1777284904 | 2.22° C | 89% | 1023.2 hPa | 0 mm | - | - | - |
| 1777283104 | 2.78° C | 89% | 1023 hPa | 0 mm | - | - | - |
| 1777282504 | 2.78° C | 89% | 1023.1 hPa | 0 mm | - | - | - |
| 1777281604 | 2.78° C | 89% | 1022.9 hPa | 0 mm | - | - | - |
| 1777280104 | 2.78° C | 89% | 1023 hPa | 0 mm | - | - | - |
* Rain latest hour (hover to see other rain measurements)
** Current wind speed in m/s (hover to see current wind gust speed)